Time;durP1;ratioP1;P1;durP2;ratioP2;P2;SDS_P1;SDS_P2;PMS_P1;PMS_P2;Temp;Humidity;BMP_temperature;BMP_pressure;BME280_temperature;BME280_humidity;BME280_pressure;Samples;Min_cycle;Max_cycle;Signal;HPM_P1;HPM_P2
2020/12/06 00:00:11;;;;;;;7.18;1.65;;;27.40;38.00;;;;;;5072220;28;20382;-89
2020/12/06 00:02:38;;;;;;;13.45;1.80;;;27.80;37.50;;;;;;5051602;28;20720;-87
2020/12/06 00:05:08;;;;;;;6.95;2.00;;;28.40;37.00;;;;;;5084078;28;20934;-88
2020/12/06 00:07:38;;;;;;;10.75;2.17;;;28.80;37.50;;;;;;5069244;28;20406;-88
2020/12/06 00:10:09;;;;;;;11.60;1.88;;;29.10;35.70;;;;;;5084546;28;20399;-87
2020/12/06 00:12:37;;;;;;;11.68;1.67;;;28.90;33.20;;;;;;5075501;28;20459;-87
2020/12/06 00:15:07;;;;;;;13.30;2.33;;;29.20;32.10;;;;;;5068861;28;20765;-88
2020/12/06 00:17:34;;;;;;;11.60;2.03;;;29.50;31.50;;;;;;5067895;28;20428;-87
2020/12/06 00:20:07;;;;;;;8.77;1.60;;;29.80;31.70;;;;;;5067790;28;20394;-88
2020/12/06 00:22:34;;;;;;;8.45;1.60;;;29.90;30.90;;;;;;5086587;28;20430;-88
2020/12/06 00:25:01;;;;;;;9.60;1.95;;;29.80;31.10;;;;;;5071734;28;20768;-86
2020/12/06 00:27:34;;;;;;;11.85;2.00;;;29.80;34.60;;;;;;5074539;28;20389;-86
2020/12/06 00:30:05;;;;;;;9.77;1.90;;;29.90;30.60;;;;;;5088753;28;20759;-86
2020/12/06 00:32:32;;;;;;;13.48;2.10;;;30.10;31.60;;;;;;5083786;28;20756;-85
2020/12/06 00:34:59;;;;;;;11.65;2.30;;;30.20;34.30;;;;;;5084123;28;20409;-86
2020/12/06 00:37:27;;;;;;;13.80;2.08;;;30.50;32.40;;;;;;5074678;28;20437;-85
2020/12/06 00:39:54;;;;;;;7.80;2.07;;;30.80;30.40;;;;;;5073096;28;20480;-88
2020/12/06 00:42:21;;;;;;;11.77;2.00;;;30.30;30.90;;;;;;5070526;28;20397;-87
2020/12/06 00:44:48;;;;;;;8.77;1.95;;;30.20;32.00;;;;;;5070040;28;20873;-87
2020/12/06 00:47:15;;;;;;;8.97;1.60;;;30.30;32.80;;;;;;5067328;28;20749;-87
2020/12/06 00:49:42;;;;;;;7.97;2.00;;;30.00;30.80;;;;;;5068280;28;20439;-86
2020/12/06 00:52:09;;;;;;;18.05;2.20;;;30.20;36.80;;;;;;5069334;28;20384;-85
2020/12/06 00:54:36;;;;;;;7.35;1.73;;;29.90;34.30;;;;;;5076972;28;20396;-85
2020/12/06 00:57:03;;;;;;;9.13;1.80;;;29.90;31.20;;;;;;5069059;28;20414;-89
2020/12/06 00:59:30;;;;;;;11.75;2.20;;;29.90;34.20;;;;;;5071292;28;20385;-90
2020/12/06 01:01:57;;;;;;;9.02;1.65;;;29.90;32.70;;;;;;5069236;28;20908;-87
2020/12/06 01:04:24;;;;;;;12.55;2.40;;;29.70;34.50;;;;;;5077449;28;20406;-88
2020/12/06 01:06:51;;;;;;;9.57;1.88;;;29.30;33.40;;;;;;5075585;28;20924;-89
2020/12/06 01:09:17;;;;;;;10.13;1.90;;;29.10;36.90;;;;;;5073291;28;20938;-85
2020/12/06 01:11:48;;;;;;;8.63;1.70;;;28.90;33.40;;;;;;5072203;28;20765;-88
2020/12/06 01:14:15;;;;;;;10.48;1.83;;;28.70;38.20;;;;;;5071898;28;20366;-87
2020/12/06 01:16:42;;;;;;;12.80;1.95;;;28.80;34.90;;;;;;5072423;28;20386;-87
2020/12/06 01:19:09;;;;;;;11.38;2.10;;;28.70;37.50;;;;;;5072235;28;20375;-87
2020/12/06 01:21:36;;;;;;;14.50;1.98;;;28.80;37.30;;;;;;5071942;28;21153;-86
2020/12/06 01:24:03;;;;;;;9.10;1.90;;;28.60;36.90;;;;;;5077978;28;20463;-87
2020/12/06 01:26:31;;;;;;;9.77;1.90;;;28.40;35.70;;;;;;5079594;28;20402;-90
2020/12/06 01:28:58;;;;;;;8.85;1.80;;;28.20;37.00;;;;;;5081180;28;20384;-88
2020/12/06 01:31:25;;;;;;;12.90;2.17;;;28.20;36.90;;;;;;5091464;28;20450;-86
2020/12/06 01:33:52;;;;;;;8.75;1.70;;;28.30;36.00;;;;;;5077736;28;20386;-88
2020/12/06 01:36:19;;;;;;;8.88;1.75;;;28.30;35.90;;;;;;5069479;28;20394;-88
2020/12/06 01:38:46;;;;;;;11.50;2.28;;;28.30;36.30;;;;;;5074798;28;20980;-86
2020/12/06 01:41:17;;;;;;;12.20;1.77;;;28.30;40.40;;;;;;5085683;28;20752;-87
2020/12/06 01:43:54;;;;;;;8.30;1.77;;;28.30;36.40;;;;;;5071442;28;20395;-87
2020/12/06 01:46:21;;;;;;;8.80;1.70;;;28.30;39.30;;;;;;5070965;28;20366;-88
2020/12/06 01:48:50;;;;;;;8.00;1.87;;;28.30;34.70;;;;;;5068312;28;20396;-89
2020/12/06 01:51:18;;;;;;;9.65;1.70;;;28.20;35.70;;;;;;5065405;28;20502;-86
2020/12/06 01:53:47;;;;;;;11.13;1.77;;;28.10;35.70;;;;;;5071087;28;20859;-86
2020/12/06 01:56:15;;;;;;;11.43;1.70;;;28.10;36.90;;;;;;5070345;28;20469;-86
2020/12/06 01:58:42;;;;;;;6.75;1.63;;;28.10;36.50;;;;;;5070902;28;20381;-85
2020/12/06 02:01:10;;;;;;;13.32;2.22;;;28.10;38.70;;;;;;5070892;28;20971;-86
2020/12/06 02:03:38;;;;;;;6.15;1.70;;;28.10;34.00;;;;;;5070776;28;20378;-84
2020/12/06 02:06:05;;;;;;;10.40;2.00;;;28.20;39.30;;;;;;5081490;28;20503;-84
2020/12/06 02:08:34;;;;;;;7.38;1.73;;;28.20;38.20;;;;;;5086952;28;20404;-84
2020/12/06 02:11:02;;;;;;;10.75;1.83;;;28.30;39.10;;;;;;5082498;28;20408;-84
2020/12/06 02:13:29;;;;;;;8.10;1.60;;;28.20;36.50;;;;;;5089444;28;20392;-87
2020/12/06 02:15:56;;;;;;;13.18;1.98;;;28.20;34.80;;;;;;5071526;28;20797;-90
2020/12/06 02:18:23;;;;;;;10.03;2.07;;;28.30;36.10;;;;;;5069782;28;20440;-86
2020/12/06 02:20:50;;;;;;;9.68;1.98;;;28.30;40.10;;;;;;5069887;28;20493;-88
2020/12/06 02:23:17;;;;;;;13.32;2.30;;;28.30;37.10;;;;;;5071182;28;20370;-86
2020/12/06 02:25:44;;;;;;;11.18;1.70;;;28.40;37.30;;;;;;5074691;28;20392;-85
2020/12/06 02:28:11;;;;;;;10.33;1.67;;;28.30;34.10;;;;;;5070750;28;20393;-87
2020/12/06 02:30:38;;;;;;;14.57;2.47;;;28.20;36.10;;;;;;5070400;28;20410;-87
2020/12/06 02:33:05;;;;;;;7.10;1.53;;;28.20;34.90;;;;;;5070413;28;20382;-86
2020/12/06 02:35:32;;;;;;;12.55;1.92;;;28.20;33.80;;;;;;5070158;28;20492;-87
2020/12/06 02:38:00;;;;;;;6.88;1.70;;;28.30;34.50;;;;;;5071100;28;20961;-90
2020/12/06 02:40:27;;;;;;;11.68;1.50;;;28.40;36.20;;;;;;5073086;28;20877;-86
2020/12/06 02:42:54;;;;;;;7.85;1.60;;;28.60;34.80;;;;;;5077652;28;20376;-85
2020/12/06 02:45:21;;;;;;;11.82;1.67;;;28.60;34.80;;;;;;5074655;28;20897;-86
2020/12/06 02:47:48;;;;;;;10.53;1.50;;;28.50;32.50;;;;;;5069162;28;20378;-84
2020/12/06 02:50:15;;;;;;;10.87;1.67;;;28.50;33.00;;;;;;5069631;28;20839;-83
2020/12/06 02:52:42;;;;;;;9.87;1.53;;;28.40;33.00;;;;;;5068627;28;20393;-85
2020/12/06 02:55:09;;;;;;;12.73;1.80;;;28.60;36.80;;;;;;5076332;28;20445;-85
2020/12/06 02:57:36;;;;;;;6.68;1.40;;;28.70;35.20;;;;;;5069496;28;20417;-84
2020/12/06 03:00:05;;;;;;;10.10;1.77;;;28.80;35.60;;;;;;5072657;28;20432;-83
2020/12/06 03:02:32;;;;;;;13.33;1.83;;;28.70;36.60;;;;;;5075431;28;20485;-84
2020/12/06 03:04:59;;;;;;;11.20;1.80;;;28.60;33.00;;;;;;5070374;28;20408;-84
2020/12/06 03:07:25;;;;;;;12.93;1.77;;;28.50;37.10;;;;;;5077790;28;20732;-83
2020/12/06 03:09:53;;;;;;;9.35;1.90;;;28.70;33.60;;;;;;5069390;28;20397;-81
2020/12/06 03:12:20;;;;;;;9.50;1.75;;;28.60;34.90;;;;;;5075934;28;20398;-84
2020/12/06 03:14:47;;;;;;;12.35;1.80;;;28.60;34.70;;;;;;5085519;28;20471;-84
2020/12/06 03:17:13;;;;;;;9.63;2.10;;;28.60;35.80;;;;;;5089658;28;20860;-83
2020/12/06 03:19:40;;;;;;;8.32;1.40;;;28.60;35.20;;;;;;5089406;28;20753;-83
2020/12/06 03:22:07;;;;;;;5.95;1.52;;;28.70;35.50;;;;;;5088612;28;20380;-83
2020/12/06 03:24:34;;;;;;;9.93;2.05;;;28.70;34.80;;;;;;5089587;28;20375;-82
2020/12/06 03:27:01;;;;;;;9.02;1.65;;;28.70;35.10;;;;;;5069799;28;20386;-83
2020/12/06 03:29:28;;;;;;;7.68;1.50;;;28.80;33.70;;;;;;5070456;28;20378;-83
2020/12/06 03:31:55;;;;;;;8.52;1.75;;;28.80;32.80;;;;;;5070439;28;20405;-87
2020/12/06 03:34:22;;;;;;;9.40;1.70;;;28.70;33.40;;;;;;5066781;28;20378;-86
2020/12/06 03:36:49;;;;;;;11.87;1.80;;;28.70;34.90;;;;;;5069069;28;20410;-85
2020/12/06 03:39:16;;;;;;;10.03;1.50;;;28.90;31.70;;;;;;5069350;28;20377;-87
2020/12/06 03:41:46;;;;;;;7.63;1.90;;;28.90;33.50;;;;;;5068845;28;20370;-86
2020/12/06 03:44:14;;;;;;;8.68;1.55;;;28.90;31.80;;;;;;5069614;28;20386;-87
2020/12/06 03:46:41;;;;;;;10.27;1.60;;;28.90;30.90;;;;;;5067878;28;20401;-84
2020/12/06 03:49:08;;;;;;;7.95;1.65;;;29.00;32.10;;;;;;5068198;28;20381;-82
2020/12/06 03:51:35;;;;;;;9.00;1.63;;;29.00;32.00;;;;;;5068366;28;20417;-86
2020/12/06 03:54:02;;;;;;;8.82;2.00;;;28.90;33.40;;;;;;5068643;28;20382;-87
2020/12/06 03:56:29;;;;;;;7.70;1.30;;;28.90;31.50;;;;;;5068731;28;20398;-83
2020/12/06 03:58:56;;;;;;;9.98;1.83;;;28.90;32.30;;;;;;5070032;28;20402;-83
2020/12/06 04:01:22;;;;;;;9.67;1.30;;;29.00;32.40;;;;;;5075884;28;20493;-84
2020/12/06 04:03:49;;;;;;;6.97;1.70;;;28.90;31.90;;;;;;5068055;28;20453;-85
2020/12/06 04:06:16;;;;;;;10.65;1.48;;;29.00;33.00;;;;;;5082299;28;20413;-84
2020/12/06 04:08:43;;;;;;;7.32;1.52;;;29.00;31.30;;;;;;5070080;28;20880;-84
2020/12/06 04:11:10;;;;;;;11.88;1.80;;;29.00;30.90;;;;;;5087510;28;20993;-84
2020/12/06 04:13:37;;;;;;;13.82;1.85;;;28.90;29.70;;;;;;5089021;28;20425;-84
2020/12/06 04:16:04;;;;;;;10.35;1.95;;;28.80;30.20;;;;;;5087553;28;20376;-84
2020/12/06 04:18:31;;;;;;;7.55;1.65;;;28.80;30.60;;;;;;5084605;28;20399;-83
2020/12/06 04:20:58;;;;;;;7.05;1.50;;;28.90;32.10;;;;;;5088950;28;20365;-84
2020/12/06 04:23:25;;;;;;;6.30;1.85;;;28.90;32.10;;;;;;5077566;28;20371;-84
2020/12/06 04:25:52;;;;;;;7.47;1.67;;;28.90;30.20;;;;;;5069053;28;20370;-85
2020/12/06 04:28:19;;;;;;;6.70;1.70;;;28.80;31.70;;;;;;5068730;28;20556;-86
2020/12/06 04:30:46;;;;;;;9.07;1.77;;;28.80;31.60;;;;;;5068399;28;20405;-85
2020/12/06 04:33:13;;;;;;;8.87;1.70;;;28.70;31.90;;;;;;5070161;28;20386;-86
2020/12/06 04:35:40;;;;;;;7.20;1.73;;;28.80;32.70;;;;;;5084546;28;20363;-86
2020/12/06 04:38:07;;;;;;;9.95;1.80;;;28.80;32.40;;;;;;5092874;28;20403;-87
2020/12/06 04:40:34;;;;;;;6.60;2.00;;;28.80;33.90;;;;;;5092909;28;20915;-87
2020/12/06 04:43:01;;;;;;;7.38;1.50;;;28.80;33.90;;;;;;5092530;28;20372;-86
2020/12/06 04:45:29;;;;;;;9.47;1.70;;;28.80;33.60;;;;;;5085663;28;20378;-88
2020/12/06 04:47:56;;;;;;;7.53;1.52;;;28.80;33.60;;;;;;5070897;28;20366;-85
2020/12/06 04:50:30;;;;;;;10.10;1.60;;;28.90;34.70;;;;;;5071861;28;20795;-86
2020/12/06 04:52:59;;;;;;;11.75;1.90;;;28.80;32.50;;;;;;5070243;28;20726;-87
2020/12/06 04:55:29;;;;;;;7.65;2.03;;;28.80;32.70;;;;;;5071956;28;20860;-87
2020/12/06 04:57:58;;;;;;;9.45;1.77;;;28.80;32.80;;;;;;5072255;28;20385;-86
2020/12/06 05:00:31;;;;;;;10.00;1.70;;;28.80;32.50;;;;;;5071395;28;20404;-85
2020/12/06 05:03:16;;;;;;;8.48;1.60;;;28.90;31.40;;;;;;5068367;28;20433;-86
2020/12/06 05:05:43;;;;;;;8.23;1.73;;;28.80;32.80;;;;;;5081307;28;20387;-85
2020/12/06 05:08:12;;;;;;;6.88;1.80;;;28.80;33.10;;;;;;5091591;28;20381;-87
2020/12/06 05:10:46;;;;;;;11.88;1.63;;;28.80;33.30;;;;;;5072835;28;20432;-85
2020/12/06 05:13:14;;;;;;;8.17;1.60;;;28.80;32.00;;;;;;5071888;28;20366;-85
2020/12/06 05:15:42;;;;;;;7.43;1.48;;;28.70;31.80;;;;;;5071159;28;20373;-86
2020/12/06 05:18:09;;;;;;;8.97;1.53;;;28.70;31.50;;;;;;5075636;28;20386;-85
2020/12/06 05:20:37;;;;;;;11.70;1.63;;;28.60;31.50;;;;;;5069081;28;20394;-86
2020/12/06 05:23:04;;;;;;;7.70;1.73;;;28.70;31.80;;;;;;5071809;28;20425;-86
2020/12/06 05:25:31;;;;;;;9.88;1.45;;;28.70;31.00;;;;;;5071764;28;20390;-85
2020/12/06 05:27:58;;;;;;;10.52;1.65;;;28.80;31.60;;;;;;5071474;28;20374;-85
2020/12/06 05:30:25;;;;;;;12.03;1.70;;;28.80;30.60;;;;;;5071588;28;20796;-86
2020/12/06 05:32:52;;;;;;;10.40;1.43;;;28.60;30.80;;;;;;5064034;28;20906;-88
2020/12/06 05:35:20;;;;;;;5.40;1.37;;;28.60;30.00;;;;;;5052111;28;20807;-85
2020/12/06 05:37:48;;;;;;;5.60;1.45;;;28.60;30.50;;;;;;5051306;28;20430;-84
2020/12/06 05:40:17;;;;;;;9.73;1.60;;;28.50;30.80;;;;;;5051702;28;20454;-84
2020/12/06 05:42:46;;;;;;;7.05;1.50;;;28.30;31.30;;;;;;5051041;28;20467;-84
2020/12/06 05:45:13;;;;;;;8.00;1.90;;;28.40;31.20;;;;;;5053592;28;20412;-85
2020/12/06 05:47:40;;;;;;;11.13;1.85;;;28.40;30.70;;;;;;5070284;28;20430;-84
2020/12/06 05:50:08;;;;;;;6.57;1.60;;;28.40;31.90;;;;;;5071090;28;20753;-84
2020/12/06 05:52:36;;;;;;;8.95;1.80;;;28.40;31.70;;;;;;5070885;28;20386;-85
2020/12/06 05:55:04;;;;;;;13.50;1.93;;;28.30;31.20;;;;;;5070740;28;20374;-85
2020/12/06 05:57:32;;;;;;;8.77;2.00;;;28.30;31.60;;;;;;5068738;28;20501;-86
2020/12/06 06:00:00;;;;;;;6.05;1.63;;;28.20;31.00;;;;;;5071013;28;20373;-86
2020/12/06 06:02:28;;;;;;;8.73;2.28;;;28.10;31.40;;;;;;5070695;28;20393;-84
2020/12/06 06:05:04;;;;;;;8.32;1.95;;;28.10;32.00;;;;;;5070761;28;20883;-83
2020/12/06 06:07:33;;;;;;;8.93;1.60;;;28.10;30.60;;;;;;5070692;28;20412;-82
2020/12/06 06:10:04;;;;;;;9.18;2.00;;;28.10;31.50;;;;;;5071263;28;20910;-83
2020/12/06 06:12:39;;;;;;;5.32;1.75;;;28.00;31.30;;;;;;5070797;28;20406;-85
2020/12/06 06:15:06;;;;;;;8.43;1.75;;;28.00;32.00;;;;;;5070479;28;20382;-85
2020/12/06 06:17:33;;;;;;;8.63;1.75;;;27.90;31.30;;;;;;5069234;28;20402;-84
2020/12/06 06:20:00;;;;;;;9.35;1.77;;;27.90;30.90;;;;;;5086725;28;20388;-83
2020/12/06 06:22:39;;;;;;;6.53;1.60;;;27.80;30.50;;;;;;5076057;28;20401;-83
2020/12/06 06:25:06;;;;;;;6.55;1.88;;;27.70;31.40;;;;;;5060512;28;20741;-83
2020/12/06 06:27:38;;;;;;;8.73;1.80;;;27.60;32.20;;;;;;5070521;28;20412;-84
2020/12/06 06:30:07;;;;;;;6.53;1.60;;;27.60;31.90;;;;;;5070011;28;20821;-83
2020/12/06 06:32:38;;;;;;;8.10;1.50;;;27.50;30.60;;;;;;5069966;28;20919;-83
2020/12/06 06:35:09;;;;;;;6.10;1.55;;;27.40;31.50;;;;;;5071409;28;20382;-82
2020/12/06 06:37:38;;;;;;;8.38;1.40;;;27.30;31.30;;;;;;5069250;28;20829;-83
2020/12/06 06:40:08;;;;;;;8.43;1.70;;;27.30;31.30;;;;;;5075270;28;20861;-84
2020/12/06 06:42:37;;;;;;;7.47;1.70;;;27.20;31.20;;;;;;5068582;28;20412;-82
2020/12/06 06:45:12;;;;;;;10.48;1.85;;;27.20;30.10;;;;;;5072947;28;20389;-85
2020/12/06 06:47:41;;;;;;;6.00;1.35;;;27.10;30.60;;;;;;5049853;28;20427;-83
2020/12/06 06:50:10;;;;;;;5.93;1.40;;;27.10;30.30;;;;;;5066379;28;20804;-83
2020/12/06 06:52:42;;;;;;;6.80;1.40;;;27.00;29.80;;;;;;5069779;28;20385;-83
2020/12/06 06:55:10;;;;;;;6.90;1.48;;;26.90;30.50;;;;;;5074138;28;20423;-82
2020/12/06 06:57:40;;;;;;;12.50;2.15;;;26.90;31.30;;;;;;5062181;28;20449;-83
2020/12/06 07:00:08;;;;;;;11.23;1.90;;;26.90;30.70;;;;;;5068931;28;20378;-84
2020/12/06 07:02:43;;;;;;;8.52;1.65;;;26.80;30.80;;;;;;5072571;28;20405;-84
2020/12/06 07:05:13;;;;;;;7.55;1.42;;;26.80;30.80;;;;;;5077564;28;20382;-83
2020/12/06 07:07:53;;;;;;;5.65;1.45;;;26.70;30.50;;;;;;5072864;28;20398;-85
2020/12/06 07:10:25;;;;;;;7.72;1.50;;;26.60;30.70;;;;;;5069499;28;20401;-83
2020/12/06 07:12:54;;;;;;;8.50;1.70;;;26.60;30.80;;;;;;5075825;28;20406;-83
2020/12/06 07:15:22;;;;;;;6.88;1.67;;;26.50;29.90;;;;;;5069616;28;20364;-85
2020/12/06 07:17:50;;;;;;;9.82;1.55;;;26.40;30.40;;;;;;5068616;28;20386;-83
2020/12/06 07:20:20;;;;;;;5.57;1.50;;;26.40;30.10;;;;;;5068696;28;20480;-83
2020/12/06 07:22:47;;;;;;;9.25;1.55;;;26.30;31.30;;;;;;5069134;28;20371;-84
2020/12/06 07:25:16;;;;;;;7.80;1.70;;;26.30;32.00;;;;;;5069288;28;20729;-83
2020/12/06 07:27:44;;;;;;;8.43;2.20;;;26.20;30.90;;;;;;5076256;28;20468;-83
2020/12/06 07:30:13;;;;;;;7.43;1.58;;;26.20;31.80;;;;;;5075039;28;20406;-82
2020/12/06 07:32:40;;;;;;;7.10;1.50;;;26.10;32.30;;;;;;5069198;28;20428;-83
2020/12/06 07:35:09;;;;;;;7.63;1.50;;;26.10;31.80;;;;;;5068461;28;20469;-84
2020/12/06 07:37:37;;;;;;;10.15;1.73;;;26.00;31.50;;;;;;5069022;28;20722;-84
2020/12/06 07:40:10;;;;;;;6.97;1.40;;;26.00;32.20;;;;;;5070785;28;20757;-86
2020/12/06 07:42:38;;;;;;;7.28;1.60;;;25.90;31.60;;;;;;5076722;28;20390;-84
2020/12/06 07:45:07;;;;;;;8.75;1.88;;;25.90;32.30;;;;;;5069507;28;20412;-84
2020/12/06 07:47:35;;;;;;;6.15;1.73;;;25.80;30.40;;;;;;5068631;28;20384;-83
2020/12/06 07:50:03;;;;;;;3.47;1.20;;;25.80;31.50;;;;;;5068786;28;20443;-82
2020/12/06 07:52:35;;;;;;;4.43;1.33;;;25.70;30.30;;;;;;5065765;28;20932;-84
2020/12/06 07:55:10;;;;;;;5.67;1.37;;;25.60;31.20;;;;;;5089033;28;20429;-83
2020/12/06 07:57:49;;;;;;;8.20;1.55;;;25.50;31.50;;;;;;5089073;28;20464;-86
2020/12/06 08:00:37;;;;;;;6.07;1.67;;;25.50;31.40;;;;;;5086197;28;21275;-86
2020/12/06 08:03:06;;;;;;;9.07;1.60;;;25.40;32.30;;;;;;5074584;28;20398;-83
2020/12/06 08:05:39;;;;;;;5.22;1.63;;;25.30;32.10;;;;;;5067806;28;20726;-83
2020/12/06 08:08:13;;;;;;;6.38;1.77;;;25.30;31.80;;;;;;5073758;28;20508;-83
2020/12/06 08:10:43;;;;;;;9.32;1.92;;;25.10;31.90;;;;;;5074268;28;20449;-83
2020/12/06 08:13:11;;;;;;;5.35;1.60;;;25.10;32.40;;;;;;5073095;28;20382;-83
2020/12/06 08:15:38;;;;;;;4.90;1.50;;;25.00;32.50;;;;;;5072809;28;20440;-84
2020/12/06 08:18:17;;;;;;;5.38;1.48;;;24.90;32.50;;;;;;5072740;28;20382;-83
2020/12/06 08:20:56;;;;;;;7.13;1.50;;;24.90;32.90;;;;;;5072745;28;20439;-84
2020/12/06 08:23:36;;;;;;;5.53;1.42;;;24.80;33.20;;;;;;5072650;28;20409;-82
2020/12/06 08:26:04;;;;;;;7.00;1.55;;;24.70;32.50;;;;;;5072545;28;20386;-83
2020/12/06 08:28:31;;;;;;;6.80;1.60;;;24.70;32.20;;;;;;5071031;28;20928;-83
2020/12/06 08:30:58;;;;;;;6.03;1.70;;;24.60;32.30;;;;;;5072474;28;20406;-83
2020/12/06 08:33:28;;;;;;;7.90;1.70;;;24.60;33.50;;;;;;5072489;28;20421;-83
2020/12/06 08:35:58;;;;;;;7.40;1.45;;;24.50;33.80;;;;;;5081959;28;20465;-82
2020/12/06 08:38:30;;;;;;;8.23;1.70;;;24.40;33.50;;;;;;5062968;28;20411;-82
2020/12/06 08:41:06;;;;;;;6.30;1.65;;;24.30;33.80;;;;;;5067900;28;20393;-83
2020/12/06 08:43:53;;;;;;;5.03;1.55;;;24.30;33.30;;;;;;5080160;28;20798;-83
2020/12/06 08:46:24;;;;;;;7.63;1.80;;;24.20;33.70;;;;;;5072270;28;20398;-84
2020/12/06 08:49:02;;;;;;;6.47;1.60;;;24.00;34.00;;;;;;5069242;28;20409;-83
2020/12/06 08:51:30;;;;;;;8.48;1.60;;;24.00;34.70;;;;;;5077797;28;20494;-84
2020/12/06 08:54:02;;;;;;;5.78;1.52;;;23.90;34.20;;;;;;5069182;28;20374;-84
2020/12/06 08:56:30;;;;;;;7.22;1.67;;;23.80;35.80;;;;;;5070391;28;20908;-84
2020/12/06 08:59:21;;;;;;;7.95;1.70;;;23.70;35.30;;;;;;5088122;28;20464;-84
2020/12/06 09:01:50;;;;;;;8.07;1.60;;;23.50;35.60;;;;;;5071966;28;20405;-84
2020/12/06 09:04:18;;;;;;;6.05;1.52;;;23.50;35.40;;;;;;5068998;28;20419;-84
2020/12/06 09:06:46;;;;;;;6.53;1.40;;;23.40;35.40;;;;;;5068845;28;20390;-84
2020/12/06 09:09:13;;;;;;;8.27;1.77;;;23.40;35.50;;;;;;5069492;28;20910;-84
2020/12/06 09:11:41;;;;;;;8.52;1.90;;;23.30;35.50;;;;;;5068429;28;20559;-84
2020/12/06 09:14:08;;;;;;;5.18;1.50;;;23.20;35.90;;;;;;5067021;28;20382;-84
2020/12/06 09:16:37;;;;;;;4.93;1.55;;;23.20;35.90;;;;;;5067756;28;20397;-85
2020/12/06 09:19:04;;;;;;;7.55;1.70;;;23.20;35.60;;;;;;5071776;28;20449;-86
2020/12/06 09:21:31;;;;;;;6.25;1.58;;;23.10;35.50;;;;;;5088296;28;20369;-84
2020/12/06 09:23:58;;;;;;;6.20;1.67;;;23.10;35.50;;;;;;5088881;28;20377;-84
2020/12/06 09:26:25;;;;;;;7.35;1.70;;;23.00;36.70;;;;;;5088906;28;20392;-85
2020/12/06 09:28:52;;;;;;;7.75;1.75;;;22.90;36.70;;;;;;5077327;28;20386;-84
2020/12/06 09:31:23;;;;;;;8.10;1.83;;;22.80;36.50;;;;;;5073393;28;20398;-84
2020/12/06 09:33:51;;;;;;;7.78;1.70;;;22.80;36.80;;;;;;5070572;28;20403;-84
2020/12/06 09:36:18;;;;;;;5.93;1.80;;;22.70;35.90;;;;;;5070788;28;20422;-83
2020/12/06 09:38:45;;;;;;;8.47;1.70;;;22.70;36.60;;;;;;5061890;28;20467;-86
2020/12/06 09:41:14;;;;;;;7.88;1.65;;;22.70;36.70;;;;;;5080992;28;20446;-84
2020/12/06 09:43:43;;;;;;;3.30;1.42;;;22.60;36.80;;;;;;5070719;28;20927;-83
2020/12/06 09:46:11;;;;;;;5.53;1.80;;;22.60;36.70;;;;;;5077336;28;20480;-84
2020/12/06 09:48:39;;;;;;;7.10;1.70;;;22.60;36.60;;;;;;5067623;28;20385;-84
2020/12/06 09:51:07;;;;;;;6.93;1.73;;;22.60;36.50;;;;;;5072971;28;20408;-83
2020/12/06 09:53:35;;;;;;;4.60;1.55;;;22.50;36.40;;;;;;5074784;28;20536;-84
2020/12/06 09:56:02;;;;;;;5.80;1.77;;;22.50;36.60;;;;;;5082323;28;20427;-84
2020/12/06 09:58:29;;;;;;;6.17;1.70;;;22.40;37.90;;;;;;5066144;28;20378;-84
2020/12/06 10:00:56;;;;;;;5.93;1.53;;;22.40;37.10;;;;;;5070577;28;20660;-83
2020/12/06 10:03:23;;;;;;;6.37;1.87;;;22.40;37.20;;;;;;5067493;28;20390;-84
2020/12/06 10:05:50;;;;;;;6.45;1.58;;;22.30;37.00;;;;;;5066286;28;20886;-83
2020/12/06 10:08:17;;;;;;;6.80;1.42;;;22.30;37.20;;;;;;5080103;28;21033;-84
2020/12/06 10:10:44;;;;;;;6.95;1.80;;;22.30;37.50;;;;;;5069389;28;20409;-84
2020/12/06 10:13:11;;;;;;;5.45;1.42;;;22.20;37.20;;;;;;5067506;28;20378;-84
2020/12/06 10:15:39;;;;;;;6.15;1.63;;;22.20;37.70;;;;;;5066482;28;20394;-83
2020/12/06 10:18:07;;;;;;;4.53;1.50;;;22.20;37.30;;;;;;5079923;28;20392;-84
2020/12/06 10:20:33;;;;;;;6.25;1.40;;;22.10;37.60;;;;;;5085482;28;20400;-83
2020/12/06 10:23:01;;;;;;;6.28;1.40;;;22.10;38.00;;;;;;5081805;28;20395;-83
2020/12/06 10:25:28;;;;;;;10.05;1.65;;;22.00;38.00;;;;;;5083309;28;20968;-82
2020/12/06 10:27:55;;;;;;;7.80;1.75;;;22.00;38.00;;;;;;5072177;28;20520;-83
2020/12/06 10:30:22;;;;;;;5.50;1.58;;;22.00;37.70;;;;;;5081957;28;20399;-83
2020/12/06 10:32:49;;;;;;;4.47;1.52;;;21.90;38.20;;;;;;5077984;28;20430;-84
2020/12/06 10:35:16;;;;;;;8.32;1.77;;;21.90;38.40;;;;;;5069134;28;20382;-84
2020/12/06 10:37:43;;;;;;;6.97;1.83;;;21.80;39.20;;;;;;5069541;28;20397;-84
2020/12/06 10:40:10;;;;;;;7.53;2.00;;;21.70;39.30;;;;;;5080798;28;20392;-84
2020/12/06 10:42:37;;;;;;;4.30;1.27;;;21.70;39.90;;;;;;5073730;28;20489;-83
2020/12/06 10:45:05;;;;;;;5.53;1.40;;;21.60;39.70;;;;;;5073802;28;20923;-84
2020/12/06 10:47:32;;;;;;;6.50;1.90;;;21.50;40.80;;;;;;5070104;28;20744;-84
2020/12/06 10:49:59;;;;;;;6.35;1.63;;;21.40;41.00;;;;;;5070067;28;20374;-83
2020/12/06 10:52:26;;;;;;;7.75;1.65;;;21.30;40.60;;;;;;5069996;28;20386;-83
2020/12/06 10:54:54;;;;;;;5.65;1.92;;;21.20;41.80;;;;;;5068300;28;20374;-84
2020/12/06 10:57:21;;;;;;;4.78;1.40;;;21.10;40.70;;;;;;5068279;28;20410;-84
2020/12/06 10:59:49;;;;;;;6.30;1.55;;;21.10;41.00;;;;;;5073715;28;20389;-83
2020/12/06 11:02:16;;;;;;;8.05;1.85;;;21.10;40.50;;;;;;5088189;28;20371;-84
2020/12/06 11:04:42;;;;;;;4.82;1.52;;;21.00;41.00;;;;;;5069763;28;20390;-83
2020/12/06 11:07:09;;;;;;;7.07;1.60;;;20.90;42.10;;;;;;5088645;28;20422;-84
2020/12/06 11:09:36;;;;;;;3.50;1.30;;;20.90;42.10;;;;;;5079185;28;20369;-84
2020/12/06 11:12:03;;;;;;;6.93;1.70;;;20.90;42.80;;;;;;5067540;28;20413;-83
2020/12/06 11:14:32;;;;;;;5.78;1.63;;;20.70;42.90;;;;;;5069604;28;20381;-83
2020/12/06 11:16:59;;;;;;;6.65;1.52;;;20.70;43.00;;;;;;5069643;28;20382;-83
2020/12/06 11:19:26;;;;;;;7.20;1.67;;;20.60;42.60;;;;;;5068844;28;20420;-84
2020/12/06 11:21:53;;;;;;;8.85;2.13;;;20.60;42.60;;;;;;5075723;28;20397;-83
2020/12/06 11:24:20;;;;;;;7.57;2.08;;;20.60;42.50;;;;;;5074601;28;20397;-84
2020/12/06 11:26:48;;;;;;;5.97;1.88;;;20.50;42.90;;;;;;5054220;28;20402;-83
2020/12/06 11:29:15;;;;;;;8.50;2.20;;;20.50;43.20;;;;;;5068783;28;20983;-83
2020/12/06 11:31:42;;;;;;;11.07;2.15;;;20.40;43.50;;;;;;5072615;28;20436;-83
2020/12/06 11:34:09;;;;;;;8.80;2.33;;;20.40;43.90;;;;;;5070554;28;20398;-83
2020/12/06 11:36:36;;;;;;;8.48;2.17;;;20.30;44.50;;;;;;5068753;28;20397;-82
2020/12/06 11:39:03;;;;;;;10.20;2.03;;;20.30;44.10;;;;;;5077496;28;20390;-83
2020/12/06 11:41:30;;;;;;;8.63;1.88;;;20.20;44.00;;;;;;5085345;28;20395;-83
2020/12/06 11:43:57;;;;;;;6.30;1.63;;;20.20;44.40;;;;;;5082808;28;20384;-82
2020/12/06 11:46:24;;;;;;;7.55;1.50;;;20.10;44.00;;;;;;5069333;28;20791;-82
2020/12/06 11:48:51;;;;;;;7.82;1.88;;;20.10;44.20;;;;;;5070308;28;20404;-85
2020/12/06 11:51:21;;;;;;;7.30;1.77;;;20.00;44.10;;;;;;5074509;28;20483;-83
2020/12/06 11:53:48;;;;;;;9.70;1.73;;;20.00;44.90;;;;;;5080842;28;20787;-82
2020/12/06 11:56:15;;;;;;;7.25;1.77;;;19.90;44.70;;;;;;5068849;28;20394;-82
2020/12/06 11:58:44;;;;;;;7.63;1.77;;;19.90;45.20;;;;;;5071874;28;20384;-83
2020/12/06 12:01:11;;;;;;;7.78;2.08;;;19.90;45.50;;;;;;5084543;28;20398;-82
2020/12/06 12:03:40;;;;;;;6.20;1.90;;;19.80;45.30;;;;;;5077794;28;20734;-82
2020/12/06 12:06:07;;;;;;;6.63;1.30;;;19.80;45.80;;;;;;5079218;28;20410;-82
2020/12/06 12:08:34;;;;;;;9.55;1.95;;;19.70;46.00;;;;;;5084930;28;20407;-83
2020/12/06 12:11:01;;;;;;;4.38;1.30;;;19.70;46.80;;;;;;5089237;28;20408;-82
2020/12/06 12:13:28;;;;;;;6.75;2.00;;;19.60;47.20;;;;;;5077588;28;20393;-82
2020/12/06 12:15:55;;;;;;;10.95;2.30;;;19.50;47.70;;;;;;5067529;28;20405;-81
2020/12/06 12:18:22;;;;;;;5.43;1.80;;;19.50;47.40;;;;;;5081048;28;20400;-82
2020/12/06 12:20:49;;;;;;;8.07;1.80;;;19.40;47.50;;;;;;5081306;28;20788;-83
2020/12/06 12:23:17;;;;;;;5.10;1.77;;;19.40;48.20;;;;;;5075850;28;20386;-83
2020/12/06 12:25:44;;;;;;;9.90;2.00;;;19.40;48.80;;;;;;5087267;28;20768;-83
2020/12/06 12:28:12;;;;;;;7.20;1.87;;;19.30;49.50;;;;;;5084264;28;20874;-83
2020/12/06 12:30:39;;;;;;;8.77;1.80;;;19.30;48.70;;;;;;5075689;28;20419;-83
2020/12/06 12:33:06;;;;;;;5.35;1.80;;;19.20;49.90;;;;;;5078060;28;20397;-83
2020/12/06 12:35:33;;;;;;;5.05;1.65;;;19.20;50.60;;;;;;5083241;28;20750;-83
2020/12/06 12:38:00;;;;;;;8.40;1.88;;;19.20;50.00;;;;;;5068182;28;20405;-83
2020/12/06 12:40:27;;;;;;;7.23;1.90;;;19.10;51.40;;;;;;5085539;28;20387;-82
2020/12/06 12:42:54;;;;;;;7.67;1.90;;;19.10;50.90;;;;;;5072948;28;20394;-83
2020/12/06 12:45:21;;;;;;;7.40;2.00;;;19.00;51.10;;;;;;5068065;28;20406;-82
2020/12/06 12:47:52;;;;;;;7.23;2.00;;;18.90;51.30;;;;;;5078452;28;20405;-82
2020/12/06 12:50:20;;;;;;;6.20;1.98;;;18.90;51.90;;;;;;5068571;28;20758;-82